Campo Grande Airport

SBCG · 南马托格罗索州, 巴西

METAR SBCG · Campo Grande Airport

15 四月 04:00 LT
16m
罗盘
风向 的 风向 050° Campo Grande Airport 6/24
风: 10 kt, 3 beaufort

10 kt

1 kt
改变
0 ft 2.000 4.000 6.000 8.000 10.000
Cloud Cloud Cloud Cloud
SCT 4.000
Cloud Cloud
FEW 5.000
Cloud Cloud Cloud Cloud Cloud Cloud
BKN 7.000
METAR SBCG 150800Z 05010KT 9999 SCT040 FEW050TCU BKN070 24/22 Q1011

METAR Campo Grande Airport - SBCG/CGR

Campo Grande Airport是,巴西中的中型机场。 该机场位于纬度-20,47000和经度-54,67399。 该机场有一条跑道: 6/24. 本场的ICAO机场代码为SBCG。 该机场的IATA代码为CGR。 机场在Curitiba FIR中。

该航空气象观测是针对Campo Grande Airport在2024年4月15日 04:00, 当地时间进行的。

机场观察

风向为050°,速度为10 kt。

可见度为10 km 或者更多。

有疏云,零星散落的云朵在4.000 ft的高度, 几云 高耸的积云在5.000 ft的高度 和 碎云在7.000 ft的高度。 破损或更高的上限为7.000 ft。

温度和风寒是24 °C。 露点为22 °C,相对湿度为89%。 海平面上的气压为1011 hPa (QNH)。

白天

今天,太阳从05:50升起,在17:27降落。 这适用于Campo Grande Airport,世界夏令时可能有所不同。 当地时间与世界标准时间之间的时差为-4 小时。 夏令时目前正在进行中。

公司介绍

我们没有关于这个机场的公司信息。

体会

到Vliegles.nl去找飞行课程,跳伞和其他飞行体验。 浏览页面,了解Campo Grande Airport附近所有可用的活动。 你也可以使用搜索功能来寻找你所在地附近的特定飞行课程、跳伞或其他飞行体验。

跑道

Id 标题 侧风 逆风 侧风 %
6/24 042°-222° 1 kt 10 kt 14 %

逆风成分最大的方向会被突出显示,并用于横风计算。 这并不一定意味着这个方向在使用。

乌云

4.000 ft SCT 疏云,零星散落的云朵
5.000 ft FEW 几云 高耸的积云
7.000 ft BKN 碎云

温度 & 天气

温度 24 °C
露点 22 °C
相对湿度 89%
Kp-index 0 (0-9)

白天

日出
05:50 (1:34)
中午
11:38
日落
17:27

小工具

你想在你的网站上有一个关于Campo Grande Airport的当前航空天气(METAR)的小部件吗?

显示HTML代码
报告变更